sensor_id;sensor_type;location;lat;lon;timestamp;P1;durP1;ratioP1;P2;durP2;ratioP2
45728;SDS011;31439;53.512;10.206;2022-09-20T00:01:18;10.20;;;2.85;;
45728;SDS011;31439;53.512;10.206;2022-09-20T00:03:48;8.85;;;2.90;;
45728;SDS011;31439;53.512;10.206;2022-09-20T00:06:16;11.75;;;3.28;;
45728;SDS011;31439;53.512;10.206;2022-09-20T00:08:44;12.18;;;2.80;;
45728;SDS011;31439;53.512;10.206;2022-09-20T00:11:11;10.77;;;2.55;;
45728;SDS011;31439;53.512;10.206;2022-09-20T00:13:40;11.73;;;3.00;;
45728;SDS011;31439;53.512;10.206;2022-09-20T00:16:07;9.70;;;2.63;;
45728;SDS011;31439;53.512;10.206;2022-09-20T00:18:34;13.50;;;3.15;;
45728;SDS011;31439;53.512;10.206;2022-09-20T00:21:00;11.50;;;2.70;;
45728;SDS011;31439;53.512;10.206;2022-09-20T00:23:26;6.65;;;2.63;;
45728;SDS011;31439;53.512;10.206;2022-09-20T00:25:58;15.05;;;2.90;;
45728;SDS011;31439;53.512;10.206;2022-09-20T00:28:25;11.68;;;3.05;;
45728;SDS011;31439;53.512;10.206;2022-09-20T00:30:52;11.18;;;2.55;;
45728;SDS011;31439;53.512;10.206;2022-09-20T00:33:19;9.88;;;2.50;;
45728;SDS011;31439;53.512;10.206;2022-09-20T00:35:45;13.38;;;2.55;;
45728;SDS011;31439;53.512;10.206;2022-09-20T00:38:11;13.35;;;2.80;;
45728;SDS011;31439;53.512;10.206;2022-09-20T00:40:38;12.52;;;2.45;;
45728;SDS011;31439;53.512;10.206;2022-09-20T00:43:04;15.93;;;3.20;;
45728;SDS011;31439;53.512;10.206;2022-09-20T00:45:30;11.32;;;2.90;;
45728;SDS011;31439;53.512;10.206;2022-09-20T00:50:39;12.57;;;2.67;;
45728;SDS011;31439;53.512;10.206;2022-09-20T00:53:12;9.68;;;2.83;;
45728;SDS011;31439;53.512;10.206;2022-09-20T00:58:19;11.02;;;2.75;;
45728;SDS011;31439;53.512;10.206;2022-09-20T01:00:48;14.20;;;2.70;;
45728;SDS011;31439;53.512;10.206;2022-09-20T01:03:15;8.35;;;2.88;;
45728;SDS011;31439;53.512;10.206;2022-09-20T01:05:44;8.70;;;2.65;;
45728;SDS011;31439;53.512;10.206;2022-09-20T01:08:10;8.52;;;2.58;;
45728;SDS011;31439;53.512;10.206;2022-09-20T01:10:36;10.13;;;2.60;;
45728;SDS011;31439;53.512;10.206;2022-09-20T01:13:03;7.63;;;2.60;;
45728;SDS011;31439;53.512;10.206;2022-09-20T01:15:29;9.52;;;2.67;;
45728;SDS011;31439;53.512;10.206;2022-09-20T01:17:56;13.68;;;3.38;;
45728;SDS011;31439;53.512;10.206;2022-09-20T01:20:30;13.68;;;3.20;;
45728;SDS011;31439;53.512;10.206;2022-09-20T01:28:04;9.40;;;2.33;;
45728;SDS011;31439;53.512;10.206;2022-09-20T01:30:53;13.48;;;3.10;;
45728;SDS011;31439;53.512;10.206;2022-09-20T01:33:37;13.82;;;2.92;;
45728;SDS011;31439;53.512;10.206;2022-09-20T01:36:12;12.52;;;2.63;;
45728;SDS011;31439;53.512;10.206;2022-09-20T01:38:43;14.65;;;2.95;;
45728;SDS011;31439;53.512;10.206;2022-09-20T01:44:12;7.75;;;2.70;;
45728;SDS011;31439;53.512;10.206;2022-09-20T01:46:49;11.52;;;2.53;;
45728;SDS011;31439;53.512;10.206;2022-09-20T01:49:28;11.52;;;2.72;;
45728;SDS011;31439;53.512;10.206;2022-09-20T01:58:07;13.05;;;3.00;;
45728;SDS011;31439;53.512;10.206;2022-09-20T02:03:47;10.35;;;2.70;;
45728;SDS011;31439;53.512;10.206;2022-09-20T02:17:17;9.52;;;2.40;;
45728;SDS011;31439;53.512;10.206;2022-09-20T02:42:28;11.90;;;3.03;;
45728;SDS011;31439;53.512;10.206;2022-09-20T02:47:42;13.95;;;3.10;;
45728;SDS011;31439;53.512;10.206;2022-09-20T02:55:59;12.60;;;2.90;;
45728;SDS011;31439;53.512;10.206;2022-09-20T03:12:03;11.32;;;3.03;;
45728;SDS011;31439;53.512;10.206;2022-09-20T03:14:39;9.07;;;3.42;;
45728;SDS011;31439;53.512;10.206;2022-09-20T03:17:17;6.40;;;2.58;;
45728;SDS011;31439;53.512;10.206;2022-09-20T03:27:31;12.63;;;3.17;;
45728;SDS011;31439;53.512;10.206;2022-09-20T03:30:21;7.53;;;2.63;;
45728;SDS011;31439;53.512;10.206;2022-09-20T03:33:01;10.10;;;3.15;;
45728;SDS011;31439;53.512;10.206;2022-09-20T03:42:19;9.30;;;3.22;;
45728;SDS011;31439;53.512;10.206;2022-09-20T04:12:11;6.60;;;2.97;;
45728;SDS011;31439;53.512;10.206;2022-09-20T04:20:18;6.65;;;2.92;;
45728;SDS011;31439;53.512;10.206;2022-09-20T04:22:48;7.25;;;3.00;;
45728;SDS011;31439;53.512;10.206;2022-09-20T04:25:18;9.23;;;3.25;;
45728;SDS011;31439;53.512;10.206;2022-09-20T04:27:52;9.10;;;3.45;;
45728;SDS011;31439;53.512;10.206;2022-09-20T04:30:23;6.57;;;3.05;;
45728;SDS011;31439;53.512;10.206;2022-09-20T04:33:00;10.05;;;3.90;;
45728;SDS011;31439;53.512;10.206;2022-09-20T04:35:34;9.10;;;3.55;;
45728;SDS011;31439;53.512;10.206;2022-09-20T04:38:34;7.28;;;3.55;;
45728;SDS011;31439;53.512;10.206;2022-09-20T04:41:11;7.60;;;3.20;;
45728;SDS011;31439;53.512;10.206;2022-09-20T04:53:04;10.68;;;3.60;;
45728;SDS011;31439;53.512;10.206;2022-09-20T04:55:45;7.65;;;3.72;;
45728;SDS011;31439;53.512;10.206;2022-09-20T05:12:13;6.53;;;3.55;;
45728;SDS011;31439;53.512;10.206;2022-09-20T05:20:49;8.18;;;3.58;;
45728;SDS011;31439;53.512;10.206;2022-09-20T05:29:27;8.10;;;3.90;;
45728;SDS011;31439;53.512;10.206;2022-09-20T05:32:35;9.88;;;3.40;;
45728;SDS011;31439;53.512;10.206;2022-09-20T05:43:51;8.32;;;3.70;;
45728;SDS011;31439;53.512;10.206;2022-09-20T05:46:33;6.38;;;3.13;;
45728;SDS011;31439;53.512;10.206;2022-09-20T05:57:32;6.43;;;4.10;;
45728;SDS011;31439;53.512;10.206;2022-09-20T06:00:25;10.38;;;4.15;;
45728;SDS011;31439;53.512;10.206;2022-09-20T06:03:10;8.77;;;3.80;;
45728;SDS011;31439;53.512;10.206;2022-09-20T06:11:30;8.60;;;3.58;;
45728;SDS011;31439;53.512;10.206;2022-09-20T06:22:55;8.93;;;3.72;;
45728;SDS011;31439;53.512;10.206;2022-09-20T06:25:32;6.63;;;3.70;;
45728;SDS011;31439;53.512;10.206;2022-09-20T06:28:17;8.80;;;3.80;;
45728;SDS011;31439;53.512;10.206;2022-09-20T06:30:46;8.32;;;3.60;;
45728;SDS011;31439;53.512;10.206;2022-09-20T06:41:06;6.97;;;3.15;;
45728;SDS011;31439;53.512;10.206;2022-09-20T06:43:59;7.57;;;3.30;;
45728;SDS011;31439;53.512;10.206;2022-09-20T06:46:29;9.35;;;3.20;;
45728;SDS011;31439;53.512;10.206;2022-09-20T06:48:57;6.35;;;3.20;;
45728;SDS011;31439;53.512;10.206;2022-09-20T06:51:23;9.45;;;3.60;;
45728;SDS011;31439;53.512;10.206;2022-09-20T06:53:51;9.45;;;3.45;;
45728;SDS011;31439;53.512;10.206;2022-09-20T06:56:19;8.38;;;3.03;;
45728;SDS011;31439;53.512;10.206;2022-09-20T06:58:56;7.93;;;2.45;;
45728;SDS011;31439;53.512;10.206;2022-09-20T07:01:22;9.07;;;2.90;;
45728;SDS011;31439;53.512;10.206;2022-09-20T07:03:47;8.90;;;2.80;;
45728;SDS011;31439;53.512;10.206;2022-09-20T07:06:13;9.73;;;2.92;;
45728;SDS011;31439;53.512;10.206;2022-09-20T07:08:43;9.43;;;2.63;;
45728;SDS011;31439;53.512;10.206;2022-09-20T07:11:13;7.60;;;3.13;;
45728;SDS011;31439;53.512;10.206;2022-09-20T07:13:40;8.77;;;2.55;;
45728;SDS011;31439;53.512;10.206;2022-09-20T07:16:07;11.85;;;2.97;;
45728;SDS011;31439;53.512;10.206;2022-09-20T07:18:35;12.07;;;3.08;;
45728;SDS011;31439;53.512;10.206;2022-09-20T07:21:00;11.32;;;2.97;;
45728;SDS011;31439;53.512;10.206;2022-09-20T07:23:27;8.60;;;2.95;;
45728;SDS011;31439;53.512;10.206;2022-09-20T07:25:56;9.65;;;2.95;;
45728;SDS011;31439;53.512;10.206;2022-09-20T07:28:28;15.55;;;3.28;;
45728;SDS011;31439;53.512;10.206;2022-09-20T07:30:54;9.80;;;2.70;;
45728;SDS011;31439;53.512;10.206;2022-09-20T07:33:20;10.25;;;2.85;;
45728;SDS011;31439;53.512;10.206;2022-09-20T07:35:52;10.43;;;3.25;;
45728;SDS011;31439;53.512;10.206;2022-09-20T07:38:19;10.98;;;3.25;;
45728;SDS011;31439;53.512;10.206;2022-09-20T07:40:49;10.52;;;2.92;;
45728;SDS011;31439;53.512;10.206;2022-09-20T07:43:21;13.98;;;2.90;;
45728;SDS011;31439;53.512;10.206;2022-09-20T07:45:51;10.98;;;2.72;;
45728;SDS011;31439;53.512;10.206;2022-09-20T07:48:23;12.30;;;2.80;;
45728;SDS011;31439;53.512;10.206;2022-09-20T07:50:53;10.50;;;2.30;;
45728;SDS011;31439;53.512;10.206;2022-09-20T07:53:21;15.43;;;2.50;;
45728;SDS011;31439;53.512;10.206;2022-09-20T07:56:07;13.02;;;2.80;;
45728;SDS011;31439;53.512;10.206;2022-09-20T07:58:35;14.38;;;2.58;;
45728;SDS011;31439;53.512;10.206;2022-09-20T08:01:02;12.60;;;2.40;;
45728;SDS011;31439;53.512;10.206;2022-09-20T08:03:30;8.57;;;2.40;;
45728;SDS011;31439;53.512;10.206;2022-09-20T08:06:00;11.18;;;2.90;;
45728;SDS011;31439;53.512;10.206;2022-09-20T08:08:30;13.32;;;2.88;;
45728;SDS011;31439;53.512;10.206;2022-09-20T08:11:03;9.32;;;2.30;;
45728;SDS011;31439;53.512;10.206;2022-09-20T08:13:36;12.32;;;2.67;;
45728;SDS011;31439;53.512;10.206;2022-09-20T08:16:03;17.05;;;2.50;;
45728;SDS011;31439;53.512;10.206;2022-09-20T08:18:31;12.25;;;3.63;;
45728;SDS011;31439;53.512;10.206;2022-09-20T08:21:04;10.82;;;2.38;;
45728;SDS011;31439;53.512;10.206;2022-09-20T08:23:34;7.85;;;2.33;;
45728;SDS011;31439;53.512;10.206;2022-09-20T08:26:04;11.98;;;2.17;;
45728;SDS011;31439;53.512;10.206;2022-09-20T08:28:31;14.82;;;2.38;;
45728;SDS011;31439;53.512;10.206;2022-09-20T08:31:01;14.93;;;2.67;;
45728;SDS011;31439;53.512;10.206;2022-09-20T08:33:35;17.65;;;2.25;;
45728;SDS011;31439;53.512;10.206;2022-09-20T08:36:04;15.50;;;2.80;;
45728;SDS011;31439;53.512;10.206;2022-09-20T08:38:30;17.23;;;2.22;;
45728;SDS011;31439;53.512;10.206;2022-09-20T08:41:03;12.15;;;2.20;;
45728;SDS011;31439;53.512;10.206;2022-09-20T08:43:31;13.52;;;2.20;;
45728;SDS011;31439;53.512;10.206;2022-09-20T08:46:02;11.82;;;2.33;;
45728;SDS011;31439;53.512;10.206;2022-09-20T08:48:31;11.70;;;1.98;;
45728;SDS011;31439;53.512;10.206;2022-09-20T08:51:01;13.80;;;2.08;;
45728;SDS011;31439;53.512;10.206;2022-09-20T08:53:27;9.10;;;1.92;;
45728;SDS011;31439;53.512;10.206;2022-09-20T08:55:54;9.48;;;1.92;;
45728;SDS011;31439;53.512;10.206;2022-09-20T08:58:24;8.50;;;2.00;;
45728;SDS011;31439;53.512;10.206;2022-09-20T09:00:51;9.50;;;1.85;;
45728;SDS011;31439;53.512;10.206;2022-09-20T09:03:17;10.50;;;2.90;;
45728;SDS011;31439;53.512;10.206;2022-09-20T09:05:44;12.23;;;1.77;;
45728;SDS011;31439;53.512;10.206;2022-09-20T09:10:41;9.68;;;2.13;;
45728;SDS011;31439;53.512;10.206;2022-09-20T09:15:54;12.20;;;2.20;;
45728;SDS011;31439;53.512;10.206;2022-09-20T09:18:28;11.07;;;2.20;;
45728;SDS011;31439;53.512;10.206;2022-09-20T09:20:57;8.43;;;1.63;;
45728;SDS011;31439;53.512;10.206;2022-09-20T09:23:28;10.27;;;2.00;;
45728;SDS011;31439;53.512;10.206;2022-09-20T09:25:56;11.20;;;1.98;;
45728;SDS011;31439;53.512;10.206;2022-09-20T09:28:28;11.95;;;1.95;;
45728;SDS011;31439;53.512;10.206;2022-09-20T09:31:10;10.88;;;1.83;;
45728;SDS011;31439;53.512;10.206;2022-09-20T09:33:57;11.00;;;1.80;;
45728;SDS011;31439;53.512;10.206;2022-09-20T09:36:22;8.80;;;1.90;;
45728;SDS011;31439;53.512;10.206;2022-09-20T09:38:49;12.40;;;2.17;;
45728;SDS011;31439;53.512;10.206;2022-09-20T09:41:35;10.65;;;1.70;;
45728;SDS011;31439;53.512;10.206;2022-09-20T09:44:05;10.43;;;2.20;;
45728;SDS011;31439;53.512;10.206;2022-09-20T09:46:40;9.90;;;1.48;;
45728;SDS011;31439;53.512;10.206;2022-09-20T09:51:39;7.85;;;1.90;;
45728;SDS011;31439;53.512;10.206;2022-09-20T09:54:13;9.05;;;1.88;;
45728;SDS011;31439;53.512;10.206;2022-09-20T10:04:42;10.18;;;1.95;;
45728;SDS011;31439;53.512;10.206;2022-09-20T10:07:35;6.50;;;1.50;;
45728;SDS011;31439;53.512;10.206;2022-09-20T10:27:17;10.65;;;1.80;;
45728;SDS011;31439;53.512;10.206;2022-09-20T10:29:37;9.73;;;1.92;;
45728;SDS011;31439;53.512;10.206;2022-09-20T10:38:36;7.85;;;1.55;;
45728;SDS011;31439;53.512;10.206;2022-09-20T10:55:21;7.80;;;1.67;;
45728;SDS011;31439;53.512;10.206;2022-09-20T10:57:52;8.25;;;1.75;;
45728;SDS011;31439;53.512;10.206;2022-09-20T11:00:46;10.60;;;1.60;;
45728;SDS011;31439;53.512;10.206;2022-09-20T11:05:58;11.43;;;2.50;;
45728;SDS011;31439;53.512;10.206;2022-09-20T11:08:46;6.18;;;1.52;;
45728;SDS011;31439;53.512;10.206;2022-09-20T11:13:51;5.50;;;1.40;;
45728;SDS011;31439;53.512;10.206;2022-09-20T11:24:51;8.60;;;1.58;;
45728;SDS011;31439;53.512;10.206;2022-09-20T11:27:30;8.95;;;1.73;;
45728;SDS011;31439;53.512;10.206;2022-09-20T11:30:06;8.25;;;1.88;;
45728;SDS011;31439;53.512;10.206;2022-09-20T11:32:47;8.80;;;1.73;;
45728;SDS011;31439;53.512;10.206;2022-09-20T11:35:23;11.82;;;2.08;;
45728;SDS011;31439;53.512;10.206;2022-09-20T11:40:39;11.13;;;1.85;;
45728;SDS011;31439;53.512;10.206;2022-09-20T11:43:10;6.15;;;1.60;;
45728;SDS011;31439;53.512;10.206;2022-09-20T11:45:39;5.97;;;1.80;;
45728;SDS011;31439;53.512;10.206;2022-09-20T11:48:15;10.20;;;1.77;;
45728;SDS011;31439;53.512;10.206;2022-09-20T11:51:07;7.07;;;1.58;;
45728;SDS011;31439;53.512;10.206;2022-09-20T11:56:26;9.13;;;1.30;;
45728;SDS011;31439;53.512;10.206;2022-09-20T11:58:56;7.60;;;1.40;;
45728;SDS011;31439;53.512;10.206;2022-09-20T12:03:59;4.60;;;1.20;;
45728;SDS011;31439;53.512;10.206;2022-09-20T12:06:37;6.03;;;1.58;;
45728;SDS011;31439;53.512;10.206;2022-09-20T12:09:20;10.05;;;1.83;;
45728;SDS011;31439;53.512;10.206;2022-09-20T12:11:49;11.90;;;1.90;;
45728;SDS011;31439;53.512;10.206;2022-09-20T12:14:21;6.53;;;1.88;;
45728;SDS011;31439;53.512;10.206;2022-09-20T12:16:52;7.90;;;1.70;;
45728;SDS011;31439;53.512;10.206;2022-09-20T12:24:30;10.00;;;1.98;;
45728;SDS011;31439;53.512;10.206;2022-09-20T12:26:57;6.20;;;1.45;;
45728;SDS011;31439;53.512;10.206;2022-09-20T12:31:57;6.75;;;1.77;;
45728;SDS011;31439;53.512;10.206;2022-09-20T12:55:38;7.25;;;1.50;;
45728;SDS011;31439;53.512;10.206;2022-09-20T13:00:44;7.30;;;1.52;;
45728;SDS011;31439;53.512;10.206;2022-09-20T13:03:39;6.82;;;1.65;;
45728;SDS011;31439;53.512;10.206;2022-09-20T13:14:23;6.20;;;1.40;;
45728;SDS011;31439;53.512;10.206;2022-09-20T13:19:24;7.30;;;1.52;;
45728;SDS011;31439;53.512;10.206;2022-09-20T13:22:05;6.80;;;1.30;;
45728;SDS011;31439;53.512;10.206;2022-09-20T13:24:47;9.50;;;1.90;;
45728;SDS011;31439;53.512;10.206;2022-09-20T13:29:49;7.18;;;1.35;;
45728;SDS011;31439;53.512;10.206;2022-09-20T13:35:24;6.43;;;1.40;;
45728;SDS011;31439;53.512;10.206;2022-09-20T13:37:55;7.32;;;1.30;;
45728;SDS011;31439;53.512;10.206;2022-09-20T13:43:05;5.63;;;1.13;;
45728;SDS011;31439;53.512;10.206;2022-09-20T13:45:42;5.35;;;1.10;;
45728;SDS011;31439;53.512;10.206;2022-09-20T13:48:08;5.55;;;1.10;;
45728;SDS011;31439;53.512;10.206;2022-09-20T13:50:34;7.03;;;1.23;;
45728;SDS011;31439;53.512;10.206;2022-09-20T13:53:02;4.40;;;1.20;;
45728;SDS011;31439;53.512;10.206;2022-09-20T13:55:40;2.15;;;0.95;;
45728;SDS011;31439;53.512;10.206;2022-09-20T13:58:28;6.07;;;1.50;;
45728;SDS011;31439;53.512;10.206;2022-09-20T14:00:57;4.30;;;1.30;;
45728;SDS011;31439;53.512;10.206;2022-09-20T14:03:25;6.47;;;1.02;;
45728;SDS011;31439;53.512;10.206;2022-09-20T14:05:53;4.57;;;0.93;;
45728;SDS011;31439;53.512;10.206;2022-09-20T14:08:34;7.88;;;1.50;;
45728;SDS011;31439;53.512;10.206;2022-09-20T14:11:15;4.30;;;1.00;;
45728;SDS011;31439;53.512;10.206;2022-09-20T14:13:46;4.05;;;1.23;;
45728;SDS011;31439;53.512;10.206;2022-09-20T14:16:23;5.40;;;1.30;;
45728;SDS011;31439;53.512;10.206;2022-09-20T14:18:54;9.65;;;1.40;;
45728;SDS011;31439;53.512;10.206;2022-09-20T14:21:26;5.18;;;1.30;;
45728;SDS011;31439;53.512;10.206;2022-09-20T14:23:59;4.97;;;1.05;;
45728;SDS011;31439;53.512;10.206;2022-09-20T14:26:33;6.00;;;1.17;;
45728;SDS011;31439;53.512;10.206;2022-09-20T14:34:43;5.05;;;1.15;;
45728;SDS011;31439;53.512;10.206;2022-09-20T14:37:35;4.23;;;1.00;;
45728;SDS011;31439;53.512;10.206;2022-09-20T14:40:22;4.97;;;1.20;;
45728;SDS011;31439;53.512;10.206;2022-09-20T14:45:28;2.45;;;0.90;;
45728;SDS011;31439;53.512;10.206;2022-09-20T14:47:56;5.25;;;1.15;;
45728;SDS011;31439;53.512;10.206;2022-09-20T14:50:39;5.63;;;1.00;;
45728;SDS011;31439;53.512;10.206;2022-09-20T14:53:40;4.68;;;1.02;;
45728;SDS011;31439;53.512;10.206;2022-09-20T14:58:30;5.53;;;1.13;;
45728;SDS011;31439;53.512;10.206;2022-09-20T15:01:01;5.40;;;0.85;;
45728;SDS011;31439;53.512;10.206;2022-09-20T15:03:31;4.53;;;1.10;;
45728;SDS011;31439;53.512;10.206;2022-09-20T15:06:00;3.17;;;1.10;;
45728;SDS011;31439;53.512;10.206;2022-09-20T15:08:26;4.20;;;1.08;;
45728;SDS011;31439;53.512;10.206;2022-09-20T15:10:52;4.95;;;0.90;;
45728;SDS011;31439;53.512;10.206;2022-09-20T15:13:17;5.13;;;1.83;;
45728;SDS011;31439;53.512;10.206;2022-09-20T15:15:43;7.75;;;1.50;;
45728;SDS011;31439;53.512;10.206;2022-09-20T15:20:58;3.50;;;0.98;;
45728;SDS011;31439;53.512;10.206;2022-09-20T15:23:25;3.38;;;0.82;;
45728;SDS011;31439;53.512;10.206;2022-09-20T15:25:51;5.75;;;1.15;;
45728;SDS011;31439;53.512;10.206;2022-09-20T15:28:18;5.90;;;1.35;;
45728;SDS011;31439;53.512;10.206;2022-09-20T15:30:45;4.75;;;1.15;;
45728;SDS011;31439;53.512;10.206;2022-09-20T15:33:12;6.28;;;1.45;;
45728;SDS011;31439;53.512;10.206;2022-09-20T15:35:39;5.00;;;1.02;;
45728;SDS011;31439;53.512;10.206;2022-09-20T15:38:05;5.90;;;1.17;;
45728;SDS011;31439;53.512;10.206;2022-09-20T15:40:42;5.45;;;1.20;;
45728;SDS011;31439;53.512;10.206;2022-09-20T15:43:12;4.85;;;0.98;;
45728;SDS011;31439;53.512;10.206;2022-09-20T15:45:48;5.65;;;1.05;;
45728;SDS011;31439;53.512;10.206;2022-09-20T15:48:22;7.22;;;1.42;;
45728;SDS011;31439;53.512;10.206;2022-09-20T15:53:22;5.90;;;1.20;;
45728;SDS011;31439;53.512;10.206;2022-09-20T15:55:49;3.95;;;1.33;;
45728;SDS011;31439;53.512;10.206;2022-09-20T15:58:14;4.07;;;1.00;;
45728;SDS011;31439;53.512;10.206;2022-09-20T16:00:41;5.35;;;1.25;;
45728;SDS011;31439;53.512;10.206;2022-09-20T16:03:06;4.72;;;1.45;;
45728;SDS011;31439;53.512;10.206;2022-09-20T16:05:32;4.10;;;0.90;;
45728;SDS011;31439;53.512;10.206;2022-09-20T16:07:58;5.03;;;1.08;;
45728;SDS011;31439;53.512;10.206;2022-09-20T16:10:24;6.93;;;1.20;;
45728;SDS011;31439;53.512;10.206;2022-09-20T16:12:49;4.20;;;1.20;;
45728;SDS011;31439;53.512;10.206;2022-09-20T16:15:15;10.32;;;1.58;;
45728;SDS011;31439;53.512;10.206;2022-09-20T16:17:40;1.92;;;0.65;;
45728;SDS011;31439;53.512;10.206;2022-09-20T16:20:25;4.95;;;1.00;;
45728;SDS011;31439;53.512;10.206;2022-09-20T16:22:50;2.88;;;0.80;;
45728;SDS011;31439;53.512;10.206;2022-09-20T16:25:16;3.47;;;1.10;;
45728;SDS011;31439;53.512;10.206;2022-09-20T16:27:41;3.28;;;0.80;;
45728;SDS011;31439;53.512;10.206;2022-09-20T16:30:07;3.33;;;0.82;;
45728;SDS011;31439;53.512;10.206;2022-09-20T16:32:33;5.60;;;1.10;;
45728;SDS011;31439;53.512;10.206;2022-09-20T16:34:58;3.70;;;1.10;;
45728;SDS011;31439;53.512;10.206;2022-09-20T16:37:27;6.28;;;1.10;;
45728;SDS011;31439;53.512;10.206;2022-09-20T16:39:56;3.30;;;1.00;;
45728;SDS011;31439;53.512;10.206;2022-09-20T16:42:22;3.40;;;0.80;;
45728;SDS011;31439;53.512;10.206;2022-09-20T16:44:48;2.53;;;1.00;;
45728;SDS011;31439;53.512;10.206;2022-09-20T16:47:14;4.05;;;0.90;;
45728;SDS011;31439;53.512;10.206;2022-09-20T16:49:49;3.67;;;1.05;;
45728;SDS011;31439;53.512;10.206;2022-09-20T16:52:15;3.92;;;0.93;;
45728;SDS011;31439;53.512;10.206;2022-09-20T16:54:41;3.78;;;1.00;;
45728;SDS011;31439;53.512;10.206;2022-09-20T16:57:06;3.25;;;1.08;;
45728;SDS011;31439;53.512;10.206;2022-09-20T16:59:33;5.25;;;1.23;;
45728;SDS011;31439;53.512;10.206;2022-09-20T17:01:58;9.60;;;1.60;;
45728;SDS011;31439;53.512;10.206;2022-09-20T17:04:24;4.30;;;1.33;;
45728;SDS011;31439;53.512;10.206;2022-09-20T17:06:50;4.85;;;1.15;;
45728;SDS011;31439;53.512;10.206;2022-09-20T17:09:16;5.68;;;1.25;;
45728;SDS011;31439;53.512;10.206;2022-09-20T17:11:46;4.63;;;1.23;;
45728;SDS011;31439;53.512;10.206;2022-09-20T17:14:14;9.00;;;1.20;;
45728;SDS011;31439;53.512;10.206;2022-09-20T17:16:42;4.07;;;1.10;;
45728;SDS011;31439;53.512;10.206;2022-09-20T17:19:11;3.40;;;1.02;;
45728;SDS011;31439;53.512;10.206;2022-09-20T17:21:40;5.28;;;1.33;;
45728;SDS011;31439;53.512;10.206;2022-09-20T17:24:13;5.13;;;1.33;;
45728;SDS011;31439;53.512;10.206;2022-09-20T17:26:39;5.78;;;1.40;;
45728;SDS011;31439;53.512;10.206;2022-09-20T17:29:08;4.85;;;1.40;;
45728;SDS011;31439;53.512;10.206;2022-09-20T17:31:36;5.75;;;1.52;;
45728;SDS011;31439;53.512;10.206;2022-09-20T17:34:03;4.95;;;1.50;;
45728;SDS011;31439;53.512;10.206;2022-09-20T17:36:32;3.67;;;1.10;;
45728;SDS011;31439;53.512;10.206;2022-09-20T17:38:59;4.55;;;1.60;;
45728;SDS011;31439;53.512;10.206;2022-09-20T17:41:26;6.20;;;1.40;;
45728;SDS011;31439;53.512;10.206;2022-09-20T17:43:54;3.90;;;1.35;;
45728;SDS011;31439;53.512;10.206;2022-09-20T17:46:21;6.25;;;1.60;;
45728;SDS011;31439;53.512;10.206;2022-09-20T17:48:53;4.82;;;1.70;;
45728;SDS011;31439;53.512;10.206;2022-09-20T17:51:20;6.47;;;1.48;;
45728;SDS011;31439;53.512;10.206;2022-09-20T17:53:48;3.72;;;1.25;;
45728;SDS011;31439;53.512;10.206;2022-09-20T17:56:15;5.45;;;1.48;;
45728;SDS011;31439;53.512;10.206;2022-09-20T17:58:41;5.65;;;1.20;;
45728;SDS011;31439;53.512;10.206;2022-09-20T18:01:07;5.57;;;1.75;;
45728;SDS011;31439;53.512;10.206;2022-09-20T18:03:36;5.10;;;1.70;;
45728;SDS011;31439;53.512;10.206;2022-09-20T18:06:37;5.22;;;2.55;;
45728;SDS011;31439;53.512;10.206;2022-09-20T18:08:57;8.48;;;3.92;;
45728;SDS011;31439;53.512;10.206;2022-09-20T18:11:30;7.25;;;2.90;;
45728;SDS011;31439;53.512;10.206;2022-09-20T18:13:58;10.15;;;4.25;;
45728;SDS011;31439;53.512;10.206;2022-09-20T18:16:25;14.65;;;6.82;;
45728;SDS011;31439;53.512;10.206;2022-09-20T18:18:51;15.65;;;7.90;;
45728;SDS011;31439;53.512;10.206;2022-09-20T18:21:20;14.00;;;8.27;;
45728;SDS011;31439;53.512;10.206;2022-09-20T18:23:50;12.38;;;7.90;;
45728;SDS011;31439;53.512;10.206;2022-09-20T18:26:17;12.27;;;6.95;;
45728;SDS011;31439;53.512;10.206;2022-09-20T18:31:16;10.52;;;6.07;;
45728;SDS011;31439;53.512;10.206;2022-09-20T18:33:42;16.25;;;7.43;;
45728;SDS011;31439;53.512;10.206;2022-09-20T18:36:08;14.77;;;7.53;;
45728;SDS011;31439;53.512;10.206;2022-09-20T18:38:34;14.13;;;6.45;;
45728;SDS011;31439;53.512;10.206;2022-09-20T18:41:00;13.75;;;5.50;;
45728;SDS011;31439;53.512;10.206;2022-09-20T18:43:30;10.60;;;5.00;;
45728;SDS011;31439;53.512;10.206;2022-09-20T18:45:59;10.95;;;5.13;;
45728;SDS011;31439;53.512;10.206;2022-09-20T18:48:25;13.18;;;5.18;;
45728;SDS011;31439;53.512;10.206;2022-09-20T18:51:00;9.73;;;4.20;;
45728;SDS011;31439;53.512;10.206;2022-09-20T18:53:28;7.15;;;3.05;;
45728;SDS011;31439;53.512;10.206;2022-09-20T18:55:55;10.65;;;2.53;;
45728;SDS011;31439;53.512;10.206;2022-09-20T18:58:30;8.25;;;1.92;;
45728;SDS011;31439;53.512;10.206;2022-09-20T19:01:10;5.93;;;2.20;;
45728;SDS011;31439;53.512;10.206;2022-09-20T19:06:17;7.93;;;2.33;;
45728;SDS011;31439;53.512;10.206;2022-09-20T19:08:56;6.93;;;2.20;;
45728;SDS011;31439;53.512;10.206;2022-09-20T19:11:29;5.90;;;2.50;;
45728;SDS011;31439;53.512;10.206;2022-09-20T19:14:12;7.10;;;2.55;;
45728;SDS011;31439;53.512;10.206;2022-09-20T19:16:45;7.03;;;2.40;;
45728;SDS011;31439;53.512;10.206;2022-09-20T19:27:16;6.45;;;2.63;;
45728;SDS011;31439;53.512;10.206;2022-09-20T19:29:41;8.68;;;3.17;;
45728;SDS011;31439;53.512;10.206;2022-09-20T19:32:10;8.45;;;2.88;;
45728;SDS011;31439;53.512;10.206;2022-09-20T19:34:41;7.50;;;2.75;;
45728;SDS011;31439;53.512;10.206;2022-09-20T19:40:15;7.10;;;2.60;;
45728;SDS011;31439;53.512;10.206;2022-09-20T19:43:05;8.23;;;2.90;;
45728;SDS011;31439;53.512;10.206;2022-09-20T19:45:59;6.85;;;2.53;;
45728;SDS011;31439;53.512;10.206;2022-09-20T19:51:04;8.27;;;2.55;;
45728;SDS011;31439;53.512;10.206;2022-09-20T19:53:34;8.77;;;3.10;;
45728;SDS011;31439;53.512;10.206;2022-09-20T19:58:48;10.93;;;3.00;;
45728;SDS011;31439;53.512;10.206;2022-09-20T20:01:18;9.57;;;3.22;;
45728;SDS011;31439;53.512;10.206;2022-09-20T20:03:46;9.13;;;3.28;;
45728;SDS011;31439;53.512;10.206;2022-09-20T20:09:11;8.82;;;3.58;;
45728;SDS011;31439;53.512;10.206;2022-09-20T20:19:32;9.77;;;3.40;;
45728;SDS011;31439;53.512;10.206;2022-09-20T20:22:22;8.27;;;3.10;;
45728;SDS011;31439;53.512;10.206;2022-09-20T20:24:59;12.73;;;3.45;;
45728;SDS011;31439;53.512;10.206;2022-09-20T20:27:25;10.73;;;3.17;;
45728;SDS011;31439;53.512;10.206;2022-09-20T20:29:52;7.70;;;3.10;;
45728;SDS011;31439;53.512;10.206;2022-09-20T20:32:19;10.32;;;3.20;;
45728;SDS011;31439;53.512;10.206;2022-09-20T20:34:45;9.52;;;3.08;;
45728;SDS011;31439;53.512;10.206;2022-09-20T20:37:11;6.68;;;2.72;;
45728;SDS011;31439;53.512;10.206;2022-09-20T20:39:37;11.13;;;3.10;;
45728;SDS011;31439;53.512;10.206;2022-09-20T20:42:02;9.27;;;2.90;;
45728;SDS011;31439;53.512;10.206;2022-09-20T20:44:30;8.85;;;2.65;;
45728;SDS011;31439;53.512;10.206;2022-09-20T20:46:58;9.30;;;3.13;;
45728;SDS011;31439;53.512;10.206;2022-09-20T20:49:28;7.60;;;2.75;;
45728;SDS011;31439;53.512;10.206;2022-09-20T20:51:54;5.80;;;2.38;;
45728;SDS011;31439;53.512;10.206;2022-09-20T20:54:21;8.20;;;2.63;;
45728;SDS011;31439;53.512;10.206;2022-09-20T20:56:47;10.57;;;2.65;;
45728;SDS011;31439;53.512;10.206;2022-09-20T20:59:13;6.65;;;2.40;;
45728;SDS011;31439;53.512;10.206;2022-09-20T21:01:39;6.97;;;3.05;;
45728;SDS011;31439;53.512;10.206;2022-09-20T21:04:11;9.45;;;3.00;;
45728;SDS011;31439;53.512;10.206;2022-09-20T21:06:39;7.38;;;2.72;;
45728;SDS011;31439;53.512;10.206;2022-09-20T21:09:05;8.60;;;2.88;;